createdAt,value
2018-02-05T00:01:10.059Z,11.90
2018-02-05T00:03:36.679Z,12.05
2018-02-05T00:06:03.233Z,11.43
2018-02-05T00:08:30.100Z,12.05
2018-02-05T00:10:56.959Z,12.02
2018-02-05T00:13:23.435Z,10.63
2018-02-05T00:15:49.961Z,11.43
2018-02-05T00:18:16.372Z,12.48
2018-02-05T00:20:43.088Z,13.18
2018-02-05T00:23:09.650Z,12.35
2018-02-05T00:25:36.103Z,11.63
2018-02-05T00:28:02.683Z,10.77
2018-02-05T00:30:29.164Z,12.02
2018-02-05T00:32:55.719Z,12.57
2018-02-05T00:35:22.620Z,12.75
2018-02-05T00:37:49.092Z,14.55
2018-02-05T00:40:15.658Z,14.15
2018-02-05T00:42:42.201Z,13.75
2018-02-05T00:45:08.692Z,12.27
2018-02-05T00:47:35.550Z,14.40
2018-02-05T00:50:02.159Z,14.87
2018-02-05T00:52:29.598Z,13.98
2018-02-05T00:54:56.128Z,14.43
2018-02-05T00:57:22.595Z,15.15
2018-02-05T00:59:49.131Z,15.85
2018-02-05T01:02:15.681Z,15.15
2018-02-05T01:04:42.594Z,14.45
2018-02-05T01:07:09.972Z,15.40
2018-02-05T01:09:36.560Z,15.18
2018-02-05T01:12:03.038Z,16.33
2018-02-05T01:14:29.579Z,15.43
2018-02-05T01:16:56.143Z,14.30
2018-02-05T01:19:22.559Z,15.43
2018-02-05T01:21:49.592Z,16.95
2018-02-05T01:24:16.628Z,16.15
2018-02-05T01:26:43.159Z,16.25
2018-02-05T01:29:09.721Z,15.93
2018-02-05T01:31:36.239Z,17.65
2018-02-05T01:34:02.857Z,16.83
2018-02-05T01:36:29.381Z,15.98
2018-02-05T01:38:55.876Z,16.10
2018-02-05T01:41:22.373Z,15.18
2018-02-05T01:43:48.916Z,16.92
2018-02-05T01:46:15.369Z,17.27
2018-02-05T01:48:42.366Z,16.60
2018-02-05T01:51:08.846Z,16.98
2018-02-05T01:53:35.712Z,16.00
2018-02-05T01:56:02.265Z,16.60
2018-02-05T01:58:28.814Z,14.43
2018-02-05T02:00:55.284Z,16.55
2018-02-05T02:03:21.685Z,16.48
2018-02-05T02:05:48.351Z,14.65
2018-02-05T02:08:14.952Z,16.25
2018-02-05T02:10:41.349Z,17.30
2018-02-05T02:13:08.008Z,15.00
2018-02-05T02:15:34.508Z,14.50
2018-02-05T02:18:01.019Z,15.65
2018-02-05T02:20:27.492Z,14.90
2018-02-05T02:22:54.123Z,15.93
2018-02-05T02:25:20.631Z,15.10
2018-02-05T02:27:47.157Z,16.30
2018-02-05T02:30:13.732Z,14.90
2018-02-05T02:32:40.299Z,15.95
2018-02-05T02:35:06.844Z,15.27
2018-02-05T02:37:33.360Z,18.60
2018-02-05T02:40:00.184Z,15.07
2018-02-05T02:42:26.595Z,14.30
2018-02-05T02:44:53.239Z,15.30
2018-02-05T02:47:19.803Z,15.07
2018-02-05T02:49:46.599Z,16.33
2018-02-05T02:52:13.135Z,18.58
2018-02-05T02:54:39.784Z,15.32
2018-02-05T02:57:06.259Z,16.25
2018-02-05T02:59:32.711Z,16.65
2018-02-05T03:01:59.366Z,16.35
2018-02-05T03:04:25.826Z,16.40
2018-02-05T03:06:52.712Z,15.60
2018-02-05T03:09:19.208Z,17.60
2018-02-05T03:11:45.737Z,17.45
2018-02-05T03:14:12.119Z,16.33
2018-02-05T03:16:38.800Z,17.50
2018-02-05T03:19:05.388Z,17.50
2018-02-05T03:21:31.863Z,16.83
2018-02-05T03:23:58.451Z,19.42
2018-02-05T03:26:24.935Z,16.83
2018-02-05T03:28:51.560Z,17.60
2018-02-05T03:31:18.074Z,16.15
2018-02-05T03:33:44.529Z,17.23
2018-02-05T03:36:11.087Z,17.67
2018-02-05T03:38:37.475Z,18.42
2018-02-05T03:41:04.160Z,18.87
2018-02-05T03:43:30.671Z,18.85
2018-02-05T03:45:57.316Z,18.87
2018-02-05T03:48:23.751Z,17.52
2018-02-05T03:50:50.289Z,18.45
2018-02-05T03:53:16.896Z,18.85
2018-02-05T03:55:43.339Z,18.45
2018-02-05T03:58:09.895Z,16.48
2018-02-05T04:00:36.473Z,18.05
2018-02-05T04:03:03.016Z,17.75
2018-02-05T04:05:29.791Z,17.40
2018-02-05T04:07:56.410Z,17.90
2018-02-05T04:10:22.894Z,16.80
2018-02-05T04:12:49.283Z,15.50
2018-02-05T04:15:16.371Z,17.80
2018-02-05T04:17:42.780Z,17.77
2018-02-05T04:20:09.371Z,17.40
2018-02-05T04:22:36.164Z,19.45
2018-02-05T04:25:02.790Z,17.90
2018-02-05T04:27:29.302Z,19.80
2018-02-05T04:29:55.804Z,18.35
2018-02-05T04:32:22.690Z,19.87
2018-02-05T04:34:49.239Z,20.20
2018-02-05T04:37:16.327Z,21.05
2018-02-05T04:39:42.796Z,19.90
2018-02-05T04:42:09.776Z,20.60
2018-02-05T04:44:36.881Z,20.75
2018-02-05T04:47:03.644Z,19.80
2018-02-05T04:49:30.536Z,20.05
2018-02-05T04:51:57.956Z,20.17
2018-02-05T04:54:24.541Z,19.73
2018-02-05T04:56:50.924Z,19.75
2018-02-05T04:59:17.881Z,19.35
2018-02-05T05:01:46.305Z,20.15
2018-02-05T05:04:12.844Z,21.10
2018-02-05T05:06:39.255Z,19.45
2018-02-05T05:09:05.882Z,21.80
2018-02-05T05:11:32.735Z,21.48
2018-02-05T05:13:59.308Z,20.95
2018-02-05T05:16:25.774Z,18.67
2018-02-05T05:18:52.393Z,21.17
2018-02-05T05:21:18.818Z,20.62
2018-02-05T05:23:45.611Z,20.98
2018-02-05T05:26:12.555Z,22.50
2018-02-05T05:28:39.123Z,23.30
2018-02-05T05:31:05.916Z,21.80
2018-02-05T05:33:32.435Z,22.70
2018-02-05T05:35:58.977Z,27.67
2018-02-05T05:38:25.575Z,24.17
2018-02-05T05:40:52.108Z,22.48
2018-02-05T05:43:18.568Z,24.27
2018-02-05T05:45:45.239Z,25.10
2018-02-05T05:48:11.642Z,27.70
2018-02-05T05:50:38.199Z,24.27
2018-02-05T05:53:04.731Z,23.98
2018-02-05T05:55:31.263Z,24.20
2018-02-05T05:57:57.815Z,23.52
2018-02-05T06:00:24.333Z,26.35
2018-02-05T06:02:50.963Z,24.95
2018-02-05T06:05:17.395Z,23.23
2018-02-05T06:07:43.943Z,23.92
2018-02-05T06:10:10.459Z,24.40
2018-02-05T06:12:37.024Z,23.05
2018-02-05T06:15:03.568Z,23.05
2018-02-05T06:17:30.061Z,22.37
2018-02-05T06:19:56.628Z,20.92
2018-02-05T06:22:23.149Z,19.37
2018-02-05T06:24:49.577Z,22.77
2018-02-05T06:27:16.576Z,20.70
2018-02-05T06:29:43.049Z,21.40
2018-02-05T06:32:09.647Z,24.35
2018-02-05T06:34:36.434Z,23.92
2018-02-05T06:37:03.006Z,23.75
2018-02-05T06:39:29.536Z,24.77
2018-02-05T06:41:56.024Z,24.85
2018-02-05T06:44:22.591Z,24.95
2018-02-05T06:46:49.164Z,24.67
2018-02-05T06:49:15.623Z,20.77
2018-02-05T07:05:11.072Z,21.92
2018-02-05T07:07:38.046Z,20.75
2018-02-05T07:10:05.034Z,25.92
2018-02-05T07:12:31.572Z,24.12
2018-02-05T07:14:58.129Z,24.60
2018-02-05T07:17:24.624Z,26.17
2018-02-05T07:19:51.194Z,23.38
2018-02-05T07:22:17.587Z,25.95
2018-02-05T07:24:44.249Z,20.10
2018-02-05T07:27:11.146Z,21.80
2018-02-05T07:29:37.663Z,21.23
2018-02-05T07:32:04.566Z,21.55
2018-02-05T07:34:31.664Z,23.12
2018-02-05T07:36:58.133Z,23.90
2018-02-05T07:39:24.541Z,23.58
2018-02-05T07:41:51.523Z,22.70
2018-02-05T07:44:18.163Z,23.25
2018-02-05T07:46:44.615Z,21.75
2018-02-05T07:49:11.131Z,24.25
2018-02-05T07:51:38.519Z,22.55
2018-02-05T07:54:05.129Z,22.67
2018-02-05T07:56:31.723Z,23.38
2018-02-05T07:58:58.213Z,23.60
2018-02-05T08:01:24.835Z,24.27
2018-02-05T08:03:51.327Z,20.98
2018-02-05T08:06:18.399Z,24.47
2018-02-05T08:08:45.016Z,24.07
2018-02-05T08:11:11.543Z,23.03
2018-02-05T08:13:38.319Z,23.80
2018-02-05T08:16:04.888Z,21.93
2018-02-05T08:18:32.500Z,21.80
2018-02-05T08:20:59.163Z,21.90
2018-02-05T08:23:25.563Z,22.37
2018-02-05T08:25:52.226Z,20.70
2018-02-05T08:28:18.773Z,20.20
2018-02-05T08:30:45.323Z,21.53
2018-02-05T08:33:11.817Z,21.43
2018-02-05T08:35:38.423Z,22.97
2018-02-05T08:38:04.965Z,23.10
2018-02-05T08:40:31.351Z,22.53
2018-02-05T08:42:58.060Z,22.27
2018-02-05T08:45:24.510Z,25.07
2018-02-05T08:47:51.079Z,22.60
2018-02-05T08:50:17.623Z,18.63
2018-02-05T08:52:44.256Z,16.87
2018-02-05T08:55:10.964Z,19.20
2018-02-05T08:57:37.796Z,21.67
2018-02-05T09:00:04.647Z,23.43
2018-02-05T09:02:31.179Z,22.87
2018-02-05T09:04:57.728Z,20.10
2018-02-05T09:07:24.251Z,22.60
2018-02-05T09:09:51.662Z,21.33
2018-02-05T09:12:18.300Z,21.80
2018-02-05T09:14:44.787Z,20.63
2018-02-05T09:17:11.685Z,20.87
2018-02-05T09:19:38.273Z,20.40
2018-02-05T09:22:04.763Z,18.80
2018-02-05T09:24:31.212Z,20.90
2018-02-05T09:26:57.912Z,20.53
2018-02-05T09:29:24.981Z,20.60
2018-02-05T09:31:51.495Z,20.80
2018-02-05T09:34:18.761Z,19.27
2018-02-05T09:36:45.800Z,20.30
2018-02-05T09:39:12.290Z,21.30
2018-02-05T09:41:38.819Z,18.30
2018-02-05T09:44:05.400Z,18.50
2018-02-05T09:46:31.852Z,17.50
2018-02-05T09:48:58.411Z,17.30
2018-02-05T09:51:24.976Z,18.53
2018-02-05T09:53:51.576Z,16.40
2018-02-05T09:56:18.031Z,15.13
2018-02-05T09:58:44.886Z,16.30
2018-02-05T10:01:11.818Z,17.73
2018-02-05T10:03:38.239Z,18.17
2018-02-05T10:06:04.775Z,17.17
2018-02-05T10:08:31.171Z,16.83
2018-02-05T10:10:58.162Z,16.33
2018-02-05T10:13:24.688Z,15.73
2018-02-05T10:15:51.283Z,16.17
2018-02-05T10:18:17.817Z,17.00
2018-02-05T10:20:44.304Z,17.07
2018-02-05T10:23:10.831Z,15.60
2018-02-05T10:25:37.238Z,15.70
2018-02-05T10:28:04.560Z,12.90
2018-02-05T10:30:31.044Z,15.77
2018-02-05T10:32:57.612Z,16.90
2018-02-05T10:35:24.192Z,16.87
2018-02-05T10:37:51.331Z,17.43
2018-02-05T10:40:17.836Z,17.73
2018-02-05T10:42:44.370Z,14.77
2018-02-05T10:45:11.183Z,16.37
2018-02-05T10:47:37.744Z,15.27
2018-02-05T10:50:04.341Z,15.93
2018-02-05T10:52:30.856Z,16.67
2018-02-05T10:54:57.336Z,15.47
2018-02-05T10:57:23.917Z,15.10
2018-02-05T10:59:50.384Z,14.37
2018-02-05T11:02:16.943Z,13.50
2018-02-05T11:04:43.447Z,14.27
2018-02-05T11:07:10.016Z,13.87
2018-02-05T11:09:36.515Z,15.27
2018-02-05T11:12:03.483Z,13.23
2018-02-05T11:14:30.537Z,12.50
2018-02-05T11:16:57.135Z,11.17
2018-02-05T11:19:24.281Z,9.43
2018-02-05T11:21:50.727Z,8.73
2018-02-05T11:24:17.615Z,10.20
2018-02-05T11:26:44.091Z,8.97
2018-02-05T11:29:10.703Z,8.20
2018-02-05T11:31:37.215Z,8.33
2018-02-05T11:34:04.032Z,7.20
2018-02-05T11:36:31.486Z,8.10
2018-02-05T11:38:58.047Z,8.35
2018-02-05T11:41:24.563Z,8.05
2018-02-05T11:43:51.163Z,8.77
2018-02-05T11:46:17.679Z,7.15
2018-02-05T11:48:44.219Z,7.35
2018-02-05T11:51:10.708Z,7.00
2018-02-05T11:53:37.319Z,7.03
2018-02-05T11:56:03.856Z,6.40
2018-02-05T11:58:30.321Z,8.32
2018-02-05T12:00:57.175Z,7.25
2018-02-05T12:03:23.723Z,8.15
2018-02-05T12:05:50.292Z,8.23
2018-02-05T12:08:16.764Z,8.93
2018-02-05T12:10:43.544Z,8.60
2018-02-05T12:13:10.195Z,7.43
2018-02-05T12:15:36.684Z,10.00
2018-02-05T12:18:03.232Z,7.82
2018-02-05T12:20:29.788Z,8.20
2018-02-05T12:22:56.275Z,7.43
2018-02-05T12:25:22.807Z,6.80
2018-02-05T12:27:49.199Z,6.80
2018-02-05T12:30:16.586Z,5.05
2018-02-05T12:32:43.024Z,5.32
2018-02-05T12:35:09.477Z,4.93
2018-02-05T12:37:36.218Z,5.85
2018-02-05T12:40:02.715Z,6.05
2018-02-05T12:42:29.131Z,4.93
2018-02-05T12:44:55.560Z,5.07
2018-02-05T12:47:22.915Z,5.65
2018-02-05T12:49:49.465Z,5.40
2018-02-05T12:52:15.919Z,5.12
2018-02-05T12:54:42.883Z,5.00
2018-02-05T12:57:09.349Z,5.60
2018-02-05T12:59:35.881Z,6.20
2018-02-05T13:02:06.295Z,5.07
2018-02-05T13:04:36.776Z,5.43
2018-02-05T13:07:03.462Z,6.00
2018-02-05T13:09:29.957Z,5.55
2018-02-05T13:11:56.495Z,5.10
2018-02-05T13:14:23.255Z,5.60
2018-02-05T13:16:50.481Z,7.20
2018-02-05T13:19:17.367Z,5.50
2018-02-05T13:21:44.171Z,5.70
2018-02-05T13:24:10.699Z,5.97
2018-02-05T13:26:37.255Z,5.10
2018-02-05T13:29:03.864Z,4.30
2018-02-05T13:31:30.625Z,4.97
2018-02-05T13:33:57.155Z,5.30
2018-02-05T13:36:23.784Z,5.87
2018-02-05T13:38:50.312Z,5.03
2018-02-05T13:41:16.775Z,5.68
2018-02-05T13:43:43.296Z,6.35
2018-02-05T13:46:10.226Z,4.82
2018-02-05T13:48:36.722Z,5.65
2018-02-05T13:51:03.332Z,4.87
2018-02-05T13:53:29.802Z,6.22
2018-02-05T13:55:56.263Z,5.70
2018-02-05T13:58:22.855Z,5.85
2018-02-05T14:00:49.431Z,5.05
2018-02-05T14:03:15.891Z,5.50
2018-02-05T14:05:42.432Z,4.75
2018-02-05T14:08:09.008Z,4.60
2018-02-05T14:10:35.563Z,4.90
2018-02-05T14:13:02.072Z,4.45
2018-02-05T14:15:28.569Z,4.93
2018-02-05T14:17:55.115Z,5.10
2018-02-05T14:20:21.630Z,6.40
2018-02-05T14:22:48.247Z,4.97
2018-02-05T14:25:15.687Z,5.10
2018-02-05T14:27:44.111Z,5.90
2018-02-05T14:30:10.590Z,5.20
2018-02-05T14:32:37.120Z,6.07
2018-02-05T14:35:03.668Z,5.47
2018-02-05T14:37:30.206Z,4.95
2018-02-05T14:39:56.696Z,7.80
2018-02-05T14:42:23.103Z,6.80
2018-02-05T14:44:49.780Z,5.65
2018-02-05T14:47:16.293Z,7.93
2018-02-05T14:49:42.876Z,6.30
2018-02-05T14:52:09.394Z,6.18
2018-02-05T14:54:35.895Z,5.40
2018-02-05T14:57:02.515Z,6.10
2018-02-05T14:59:28.887Z,6.07
2018-02-05T15:01:55.621Z,5.18
2018-02-05T15:04:22.031Z,6.07
2018-02-05T15:06:48.616Z,7.10
2018-02-05T15:09:15.168Z,7.72
2018-02-05T15:11:41.633Z,8.30
2018-02-05T15:14:08.222Z,8.65
2018-02-05T15:16:34.991Z,7.97
2018-02-05T15:19:01.948Z,6.85
2018-02-05T15:21:28.391Z,9.25
2018-02-05T15:23:55.248Z,8.88
2018-02-05T15:26:21.759Z,8.23
2018-02-05T15:28:48.602Z,7.00
2018-02-05T15:31:15.189Z,7.70
2018-02-05T15:33:41.679Z,8.85
2018-02-05T15:36:08.283Z,10.40
2018-02-05T15:38:35.081Z,10.30
2018-02-05T15:41:01.610Z,11.35
2018-02-05T15:43:28.004Z,10.98
2018-02-05T15:45:54.708Z,7.95
2018-02-05T15:48:21.220Z,7.20
2018-02-05T15:50:47.788Z,9.77
2018-02-05T15:53:14.627Z,16.25
2018-02-05T15:55:42.083Z,15.20
2018-02-05T15:58:09.181Z,15.80
2018-02-05T16:00:36.036Z,16.17
2018-02-05T16:03:02.875Z,12.75
2018-02-05T16:05:29.772Z,18.60
2018-02-05T16:07:56.241Z,16.83
2018-02-05T16:10:22.695Z,16.70
2018-02-05T16:12:49.611Z,17.83
2018-02-05T16:15:16.236Z,16.73
2018-02-05T16:17:43.665Z,19.05
2018-02-05T16:20:10.147Z,15.82
2018-02-05T16:22:36.721Z,15.43
2018-02-05T16:25:03.268Z,18.35
2018-02-05T16:27:30.088Z,16.92
2018-02-05T16:29:56.595Z,21.45
2018-02-05T16:32:23.232Z,20.33
2018-02-05T16:34:50.356Z,21.67
2018-02-05T16:37:16.820Z,22.05
2018-02-05T16:39:43.421Z,21.40
2018-02-05T16:42:09.956Z,18.33
2018-02-05T16:44:36.500Z,17.48
2018-02-05T16:47:02.967Z,24.30
2018-02-05T16:49:30.655Z,31.35
2018-02-05T16:51:57.420Z,31.02
2018-02-05T16:54:24.262Z,50.63
2018-02-05T16:56:51.254Z,56.92
2018-02-05T16:59:17.885Z,63.90
2018-02-05T17:01:44.363Z,71.30
2018-02-05T17:04:10.957Z,64.25
2018-02-05T17:06:37.408Z,39.50
2018-02-05T17:09:08.530Z,45.33
2018-02-05T17:11:35.129Z,26.20
2018-02-05T17:14:01.965Z,22.35
2018-02-05T17:16:28.508Z,19.67
2018-02-05T17:18:55.281Z,20.65
2018-02-05T17:21:21.823Z,20.00
2018-02-05T17:23:48.375Z,23.75
2018-02-05T17:26:14.909Z,24.45
2018-02-05T17:28:41.532Z,24.92
2018-02-05T17:31:07.979Z,27.25
2018-02-05T17:33:34.498Z,26.55
2018-02-05T17:36:01.036Z,26.15
2018-02-05T17:38:27.577Z,27.90
2018-02-05T17:40:54.107Z,28.15
2018-02-05T17:43:20.698Z,24.60
2018-02-05T17:45:47.515Z,26.55
2018-02-05T17:48:14.293Z,28.10
2018-02-05T17:50:40.852Z,28.42
2018-02-05T17:53:07.392Z,26.70
2018-02-05T17:55:33.928Z,25.52
2018-02-05T17:58:00.461Z,27.75
2018-02-05T18:00:27.043Z,28.27
2018-02-05T18:02:53.649Z,30.52
2018-02-05T18:05:20.141Z,31.00
2018-02-05T18:07:46.652Z,30.45
2018-02-05T18:10:13.143Z,30.27
2018-02-05T18:12:39.676Z,32.30
2018-02-05T18:15:07.113Z,24.20
2018-02-05T18:17:33.984Z,22.17
2018-02-05T18:20:00.582Z,25.73
2018-02-05T18:22:27.660Z,25.23
2018-02-05T18:24:54.262Z,20.60
2018-02-05T18:27:20.725Z,20.12
2018-02-05T18:29:47.167Z,16.55
2018-02-05T18:32:13.548Z,15.50
2018-02-05T18:34:40.342Z,16.35
2018-02-05T18:37:06.900Z,15.68
2018-02-05T18:39:33.729Z,17.02
2018-02-05T18:42:00.544Z,16.65
2018-02-05T18:44:27.103Z,15.15
2018-02-05T18:46:53.625Z,13.25
2018-02-05T18:49:20.083Z,13.62
2018-02-05T18:51:47.057Z,13.40
2018-02-05T18:54:13.606Z,13.73
2018-02-05T18:56:43.784Z,13.45
2018-02-05T18:59:10.168Z,12.02
2018-02-05T19:01:36.563Z,14.13
2018-02-05T19:04:03.388Z,16.25
2018-02-05T19:06:29.880Z,15.52
2018-02-05T19:08:56.493Z,14.02
2018-02-05T19:11:22.981Z,15.60
2018-02-05T19:13:49.515Z,15.48
2018-02-05T19:16:15.918Z,14.20
2018-02-05T19:18:42.892Z,14.45
2018-02-05T19:21:09.424Z,16.25
2018-02-05T19:23:36.318Z,15.50
2018-02-05T19:26:03.163Z,15.27
2018-02-05T19:28:31.897Z,15.32
2018-02-05T19:30:58.405Z,14.20
2018-02-05T19:33:24.927Z,14.73
2018-02-05T19:35:51.412Z,14.75
2018-02-05T19:38:17.925Z,15.05
2018-02-05T19:40:44.584Z,15.45
2018-02-05T19:43:11.352Z,14.63
2018-02-05T19:45:37.839Z,13.80
2018-02-05T19:48:04.697Z,14.10
2018-02-05T19:50:31.276Z,14.30
2018-02-05T19:52:57.748Z,16.25
2018-02-05T19:55:24.375Z,15.23
2018-02-05T19:57:50.906Z,15.35
2018-02-05T20:00:17.368Z,17.95
2018-02-05T20:02:43.879Z,16.30
2018-02-05T20:05:10.440Z,17.37
2018-02-05T20:07:36.975Z,18.65
2018-02-05T20:10:03.599Z,18.90
2018-02-05T20:12:30.007Z,19.90
2018-02-05T20:14:57.824Z,19.62
2018-02-05T20:17:25.919Z,21.33
2018-02-05T20:19:54.176Z,21.42
2018-02-05T20:22:20.806Z,22.15
2018-02-05T20:24:47.412Z,23.17
2018-02-05T20:27:13.910Z,23.02
2018-02-05T20:29:40.399Z,26.83
2018-02-05T20:32:06.955Z,22.35
2018-02-05T20:34:34.440Z,26.77
2018-02-05T20:37:01.677Z,26.15
2018-02-05T20:39:28.415Z,27.20
2018-02-05T20:41:54.948Z,30.05
2018-02-05T20:44:21.450Z,30.40
2018-02-05T20:46:47.986Z,29.58
2018-02-05T20:49:15.027Z,31.25
2018-02-05T20:51:41.673Z,29.48
2018-02-05T20:54:08.196Z,42.38
2018-02-05T20:56:35.032Z,60.33
2018-02-05T20:59:01.591Z,77.00
2018-02-05T21:01:28.108Z,70.32
2018-02-05T21:03:54.510Z,66.40
2018-02-05T21:06:21.519Z,67.57
2018-02-05T21:08:48.011Z,65.30
2018-02-05T21:11:14.566Z,68.50
2018-02-05T21:13:41.398Z,68.82
2018-02-05T21:16:07.921Z,71.90
2018-02-05T21:18:34.529Z,71.00
2018-02-05T21:21:00.976Z,69.32
2018-02-05T21:23:27.646Z,69.43
2018-02-05T21:25:54.092Z,66.18
2018-02-05T21:28:20.604Z,57.22
2018-02-05T21:30:47.204Z,58.13
2018-02-05T21:33:14.057Z,56.92
2018-02-05T21:35:40.604Z,53.53
2018-02-05T21:38:07.108Z,52.33
2018-02-05T21:40:33.656Z,52.92
2018-02-05T21:43:00.170Z,49.92
2018-02-05T21:45:26.668Z,47.95
2018-02-05T21:47:53.204Z,48.63
2018-02-05T21:50:21.903Z,53.65
2018-02-05T21:52:48.427Z,60.55
2018-02-05T21:55:15.032Z,68.30
2018-02-05T21:57:41.595Z,67.25
2018-02-05T22:00:08.084Z,66.53
2018-02-05T22:02:34.623Z,70.75
2018-02-05T22:05:01.079Z,74.07
2018-02-05T22:07:27.639Z,70.18
2018-02-05T22:09:54.240Z,65.97
2018-02-05T22:12:20.695Z,65.62
2018-02-05T22:14:47.632Z,63.45
2018-02-05T22:17:14.078Z,62.05
2018-02-05T22:19:40.607Z,68.68
2018-02-05T22:22:07.002Z,65.55
2018-02-05T22:24:34.044Z,65.87
2018-02-05T22:27:00.575Z,71.10
2018-02-05T22:29:27.971Z,71.32
2018-02-05T22:31:54.787Z,68.20
2018-02-05T22:34:21.416Z,67.93
2018-02-05T22:36:47.898Z,67.65
2018-02-05T22:39:14.430Z,68.45
2018-02-05T22:41:41.281Z,69.75
2018-02-05T22:44:07.821Z,66.47
2018-02-05T22:46:34.343Z,74.00
2018-02-05T22:49:00.836Z,113.00
2018-02-05T22:51:27.792Z,104.03
2018-02-05T22:53:54.242Z,85.35
2018-02-05T22:56:20.912Z,76.20
2018-02-05T22:58:47.323Z,72.25
2018-02-05T23:01:13.851Z,68.97
2018-02-05T23:03:40.388Z,66.90
2018-02-05T23:06:06.916Z,73.78
2018-02-05T23:08:33.507Z,65.62
2018-02-05T23:11:00.057Z,68.43
2018-02-05T23:13:26.555Z,69.05
2018-02-05T23:15:53.076Z,64.40
2018-02-05T23:18:19.609Z,68.25
2018-02-05T23:20:46.162Z,64.57
2018-02-05T23:23:12.984Z,64.35
2018-02-05T23:25:39.561Z,63.53
2018-02-05T23:28:06.356Z,60.95
2018-02-05T23:30:32.995Z,58.83
2018-02-05T23:33:00.408Z,59.63
2018-02-05T23:35:26.889Z,59.75
2018-02-05T23:37:53.435Z,63.47
2018-02-05T23:40:20.016Z,63.67
2018-02-05T23:42:46.551Z,62.40
2018-02-05T23:45:13.036Z,59.35
2018-02-05T23:47:39.607Z,60.50
2018-02-05T23:50:06.395Z,57.53
2018-02-05T23:52:32.973Z,58.08
2018-02-05T23:54:59.524Z,53.20
2018-02-05T23:57:26.937Z,54.50
2018-02-05T23:59:53.519Z,56.15
